Logo AVAMET
Benvolgut visitant, si us plau, ingressa Recuperar contrasenya

Vilallonga el Pla de la Llacuna

Dades diàries. Acumulats / Últims 30 dies disponibles

Data Temperatura (°C) Humitat rel. (%) Pressió rel. (hPa) Vent (km/h) Precipitació
Mínima Mitjana Màxima Amplitud
tèrmica
Mínima Mitjana Màxima Mínima Mitjana Màxima Predom. Mitjana Ràfega
màxima
Total
(mm)
Índex-n
Mínima Mitjana Màxima Mínima Mitjana Màxima n
0 a 1
P0 max
mm 5'
Dades mensuals acumulades fins l'últim dia disponible
11/2019 5,1 9,7 17,9 12,5 11,5 15,9 23,7 18,6 30 62 93 999 1.010 1.020   11,3 67,6 17,0
Dades anuals acumulades fins l'últim dia disponible
2019 1,1 12,5 26,3 16,9 8,9 21,5 38,6 37,5 12 66 100 993 1.016 1.035   4,5 80,5 1.366,4
Últims 30 dies disponibles
18-11-2019 5,1     8,8     11,8 6,7 57 72 93 1.007 1.011 1.016 SSO 5,0 27,4 3,4
17-11-2019 6,3     9,4     13,1 6,8 50 61 88 1.010 1.012 1.014 O 16,9 51,5 3,4 0,08 0,40
16-11-2019 5,2     8,1     11,7 6,5 47 60 72 1.006 1.011 1.015 O 7,5 33,8 0,0
15-11-2019 6,3     8,4     11,5 5,2 49 64 73 1.000 1.003 1.006 O 11,2 48,3 0,0
14-11-2019 6,2     10,8     13,9 7,7 55 68 85 999 1.002 1.009 O 10,8 41,8 1,2 0,20
13-11-2019 10,2     12,3     15,9 5,7 57 75 92 1.005 1.008 1.011 SO 10,7 48,3 5,6 0,17 0,80
12-11-2019 8,2     11,3     15,3 7,1 40 52 67 1.009 1.011 1.013 O 8,0 54,7 0,0
11-11-2019 6,6     10,0     13,3 6,7 48 57 70 1.011 1.013 1.014 OSO 7,9 37,0 0,0
10-11-2019 7,0     9,9     12,6 5,6 49 63 87 1.010 1.012 1.013 O 10,6 57,9 2,2 0,42 0,80
09-11-2019 8,3     11,2     14,8 6,5 42 55 85 1.012 1.017 1.019 O 12,5 43,5 1,2 0,20
08-11-2019 7,8     10,2     12,8 5,0 43 54 69 1.009 1.012 1.017 O 13,6 56,3 0,0
07-11-2019 9,4     13,3     17,6 8,2 30 61 73 1.007 1.009 1.013 OSO 12,9 49,9 0,0
06-11-2019 10,6     13,2     17,2 6,6 41 56 66 1.012 1.012 1.014 O 10,8 45,1 0,0
05-11-2019 11,9     14,1     17,1 5,2 48 60 75 1.005 1.008 1.012 O 12,6 54,7 0,0
04-11-2019 15,0     17,6     21,4 6,4 52 62 75 1.005 1.008 1.011 O 16,5 57,9 0,0
03-11-2019 15,4     17,7     20,2 4,8 55 61 71 1.001 1.004 1.010 O 14,0 67,6 0,0
02-11-2019 17,9     19,4     22,3 4,4 51 65 75 1.004 1.009 1.013 O 11,9 46,7 0,0
01-11-2019 16,8     20,1     23,7 6,9 59 69 81 1.013 1.017 1.020 O 9,7 49,9 0,0
31-10-2019 17,2     19,8     22,9 5,7 57 66 76 1.018 1.019 1.021 OSO 7,9 38,6 0,0
30-10-2019 14,7     19,5     22,7 8,0 54 64 79 1.018 1.019 1.021 SO 4,3 24,1 0,0
29-10-2019 15,2     19,3     23,4 8,2 49 67 88 1.014 1.016 1.019 SSO 4,6 25,7 0,0
28-10-2019 11,9     16,0     20,2 8,3 62 81 97 1.016 1.017 1.020 ESE 0,6 9,7 0,2
27-10-2019 11,3     14,8     19,6 8,3 75 89 97 1.020 1.021 1.022 ESE 0,9 14,5 0,4
26-10-2019 12,3     15,7     19,7 7,4 54 72 95 1.020 1.021 1.022 ESE 0,9 16,1 0,0
25-10-2019 14,2     16,7     20,4 6,2 47 61 81 1.020 1.021 1.022 SSO 5,0 25,7 0,0
24-10-2019 9,7     13,9     17,8 8,1 55 66 80 1.011 1.016 1.022 OSO 8,5 41,8 0,0
23-10-2019 8,9     11,6     16,2 7,3 53 74 90 1.005 1.008 1.012 OSO 9,1 38,6 0,4
22-10-2019 10,1     11,9     14,0 3,9 69 89 97 1.005 1.010 1.017 SSE 5,4 33,8 73,8 0,34 1,80
21-10-2019 10,5     12,4     14,8 4,3 58 75 94 1.014 1.016 1.018 SSO 3,8 25,7 0,0
20-10-2019 11,3     16,5     20,2 8,9 59 68 87 1.004 1.008 1.015 O 7,4 37,0 2,0
Últims 13 mesos disponibles
10/2019 8,9 14,0 17,3 18,1 14,0 22,3 30,4 21,5 29 69 94 1.008 1.016 1.021 OSO 4,2 51,5 84,2
09/2019 11,9 17,2 20,9 20,8 18,1 24,5 31,4 19,5 47 81 100 1.009 1.017 1.023 ENE 3,2 80,5 331,8
08/2019 16,6 19,4 26,3 24,4 23,7 29,6 38,6 22,0 30 71 91 1.009 1.015 1.019 E 2,9 37,0 212,2
07/2019 17,6 19,4 23,2 24,9 24,5 30,1 37,1 19,5 37 64 89 1.005 1.013 1.021 ENE 3,2 59,5 1,0
06/2019 9,6 15,2 20,7 20,8 18,3 26,2 34,7 25,1 37 62 90 1.008 1.014 1.021 E 3,2 51,5 1,8
05/2019 7,2 11,8 18,6 16,6 15,9 21,9 28,7 21,5 51 69 87 1.005 1.015 1.024 SE 3,7 56,3 22,6
04/2019 5,9 9,4 13,5 12,9 10,7 17,1 25,9 20,0 35 72 100 999 1.013 1.024 OSO 6,8 61,2 542,6
03/2019 4,1 8,3 14,4 12,7 10,4 17,2 25,0 20,9 31 59 97 1.009 1.022 1.030 SE 4,3 74,0 137,2
02/2019 2,1 6,0 11,8 10,5 8,9 14,9 21,4 19,3 28 62 92 995 1.024 1.033 SSE 4,1 75,6 0,8
01/2019 1,1 5,9 10,2 9,8 8,9 13,9 18,9 17,8 34 57 83 1.002 1.019 1.031 OSO 5,9 62,8 15,2
12/2018 4,2 8,6 15,4 12,7 10,3 17,3 24,7 20,5 35 62 97 1.008 1.025 1.030 OSO 5,2 62,8 32,4
11/2018 6,6 9,8 13,5 12,6 11,3 15,8 20,5 13,9 30 73 100 1.001 1.015 1.023 OSO 6,2 78,9 290,2
10/2018 4,8 12,7 16,9 16,2 11,1 20,1 27,2 22,4 40 75 99 999 1.014 1.025 3,5 67,6 125,4
Tots els anys disponibles
Temperatura (°C)
Humitat relativa (%)
Velocitat del vent i ràfega màxima (km/h)
Direcció del vent (°)
Pressió (hPa)
Precipitació (mm)
Nota sobre les dades: s'avisa a l'usuari de la provisionalitat i no oficialitat d'aquestes dades
Logo AVAMET blanc
Web allotjada a Sollutia
Llicència de Creative CommonsLa web d'AVAMET i els seus continguts estan subjectes a una llicència de
Reconeixement - No Comercial - Compartir igual
Últimes estacions: Xàbia - Alt de la Granadella (Soci), Villena - Sierra de Salinas (Soci), Sueca - Centre (Inforatge), Xàbia - La Plana (Soci), - - -